Latest Coastal Weather Observations for Eucla

IDS60701

Issued at 12:21 am CST Tuesday 28 June 2016 (issued every 10 minutes, with the page automatically refreshed every 10 minutes)

About coastal observations | Map of coastal stations | Coastal observations for SA | Marine services | Other Formats
Station Details ID: 011003 Name: EUCLA Lat: -31.68 Lon: 128.90 Height: 93.1 m
Data from the previous 72 hours. | See also: Recent months at Eucla
Date/Time
CST
Temp
°C
Wind Pressure Rain since
9am
mm
Weather Cloud Vis
km
Sea
Height
m
Swell
Dir  Spd
kts
Gust
kts
hPa Trend Height
m
Period
s
Dir
28/12:00am 5.6 N 7 8 1023.3 - 0.0 - - - - - - -
 
Date/Time
CST
Temp
°C
Wind Pressure Rain since
9am
mm
Weather Cloud Vis
km
Sea
Height
m
Swell
Dir  Spd
kts
Gust
kts
hPa Trend Height
m
Period
s
Dir
27/11:30pm 6.0 N 8 9 1023.5 - 0.0 - - - - - - -
27/11:00pm 6.1 N 7 8 1023.7 - 0.0 - - - - - - -
27/10:30pm 7.0 NNE 7 8 1023.5 - 0.0 - - - - - - -
27/10:00pm 7.7 NNE 7 8 1023.5 - 0.0 - - - - - - -
27/09:30pm 8.4 NE 6 8 1023.5 - 0.0 - - - - - - -
27/09:00pm 9.0 NE 6 7 1023.7 - 0.0 - - - - - - -
27/08:30pm 9.8 NE 6 8 1023.8 - 0.0 - - - - - - -
27/08:00pm 10.3 NE 7 8 1023.6 - 0.0 - - - - - - -
27/07:30pm 10.4 NE 6 7 1023.6 - 0.0 - - - - - - -
27/07:00pm 10.1 NE 6 7 1023.3 - 0.0 - - - - - - -
27/06:30pm 9.6 N 4 5 1023.1 - 0.0 - - - - - - -
27/06:00pm 11.5 NNW 4 5 1022.9 - 0.0 - - - - - - -
27/05:30pm 14.8 N 6 8 1022.8 - 0.0 - - - - - - -
27/05:00pm 16.3 NW 7 10 1022.7 - 0.0 - - - - - - -
27/04:30pm 17.2 NW 5 9 1022.8 - 0.0 Fine Mostly clear 40 - - - -
27/04:00pm 17.1 NNW 7 10 1022.8 - 0.0 - - - - - - -
27/03:30pm 17.6 NNW 7 10 1022.8 - 0.0 - - - - - - -
27/03:00pm 17.4 NNW 7 10 1022.9 - 0.0 - - - - - - -
27/02:30pm 17.6 NNW 7 11 1023.1 - 0.0 - - - - - - -
27/02:00pm 17.0 W 5 8 1023.6 - 0.0 - - - - - - -
27/01:30pm 17.1 W 6 10 1024.1 - 0.0 - - - - - - -
27/01:00pm 16.5 WNW 7 11 1024.6 - 0.0 - - - - - - -
27/12:30pm 16.1 WNW 8 12 1025.1 - 0.0 - - - - - - -
27/12:00pm 15.7 NW 8 12 1025.4 - 0.0 - - - - - - -
27/11:30am 14.5 NW 9 14 1025.7 - 0.0 - - - - - - -
27/11:00am 13.4 NNW 10 15 1025.9 - 0.0 - - - - - - -
27/10:30am 12.2 NNW 9 13 1026.2 - 0.2 Fine Mostly clear 40 - - - -
27/10:00am 10.0 NNW 8 11 1025.9 - 0.2 - - - - - - -
27/09:30am 8.3 NNW 8 10 1025.7 - 0.2 - - - - - - -
27/09:00am 6.1 NNW 7 10 1025.4 - 0.2 - - - - - - -
27/08:30am 4.4 NNW 7 9 1025.2 - 0.2 - - - - - - -
27/08:00am 4.0 NNW 7 9 1025.0 - 0.2 - - - - - - -
27/07:30am 4.0 NNW 7 9 1024.7 - 0.2 - - - - - - -
27/07:00am 4.6 NNW 7 8 1024.4 - 0.2 - - - - - - -
27/06:30am 5.4 NNW 7 8 1024.2 - 0.2 - - - - - - -
27/06:00am 6.1 NNW 6 8 1024.2 - 0.2 - - - - - - -
27/05:30am 5.7 NNW 6 8 1024.1 - 0.2 - - - - - - -
27/05:00am 6.7 NW 6 8 1024.0 - 0.2 - - - - - - -
27/04:30am 6.4 NW 6 7 1023.9 - 0.2 Recent precip. - - - - - -
27/04:00am 6.0 NW 6 7 1023.7 - 0.2 - - - - - - -
27/03:30am 5.0 NNW 5 6 1023.8 - 0.0 - - - - - - -
27/03:00am 5.6 NNW 5 5 1023.8 - 0.0 - - - - - - -
27/02:30am 8.6 NW 5 7 1023.8 - 0.0 - - - - - - -
27/02:00am 8.8 WNW 6 7 1023.9 - 0.0 - - - - - - -
27/01:30am 8.7 WNW 6 8 1023.9 - 0.0 - - - - - - -
27/01:00am 8.5 WNW 5 6 1023.8 - 0.0 - - - - - - -
27/12:30am 8.3 WNW 5 6 1023.9 - 0.0 - - - - - - -
27/12:00am 8.4 WNW 5 6 1023.7 - 0.0 - - - - - - -
 
Date/Time
CST
Temp
°C
Wind Pressure Rain since
9am
mm
Weather Cloud Vis
km
Sea
Height
m
Swell
Dir  Spd
kts
Gust
kts
hPa Trend Height
m
Period
s
Dir
26/11:30pm 8.3 WNW 5 6 1023.8 - 0.0 - - - - - - -
26/11:00pm 8.8 WNW 5 6 1023.6 - 0.0 - - - - - - -
26/10:30pm 8.9 WNW 6 7 1023.5 - 0.0 - - - - - - -
26/10:00pm 10.0 WNW 6 6 1023.4 - 0.0 - - - - - - -
26/09:30pm 10.9 WNW 5 6 1023.3 - 0.0 - - - - - - -
26/09:00pm 11.1 WSW 4 6 1023.1 - 0.0 - - - - - - -
26/08:30pm 11.3 WSW 6 8 1023.1 - 0.0 - - - - - - -
26/08:00pm 11.2 WSW 5 7 1023.0 - 0.0 - - - - - - -
26/07:30pm 11.5 WSW 5 8 1022.8 - 0.0 - - - - - - -
26/07:00pm 11.5 SW 6 8 1022.4 - 0.0 - - - - - - -
26/06:30pm 12.3 SSW 6 8 1022.3 - 0.0 - - - - - - -
26/06:00pm 12.8 SSW 7 11 1022.0 - 0.0 - - - - - - -
26/05:30pm 13.0 S 7 12 1021.8 - 0.0 - - - - - - -
26/05:00pm 14.3 SSW 9 14 1021.5 - 0.0 - - - - - - -
26/04:30pm 14.7 SSW 9 16 1021.3 - 0.0 Haze Partly cloudy 25 - - - -
26/04:00pm 13.9 SSW 9 14 1021.0 - 0.0 - - - - - - -
26/03:30pm 15.4 SSW 12 17 1020.7 - 0.0 - - - - - - -
26/03:00pm 15.4 SSW 12 18 1020.6 - 0.0 - - - - - - -
26/02:30pm 14.7 SSW 11 18 1020.5 - 0.0 - - - - - - -
26/02:00pm 15.7 S 12 18 1020.4 - 0.0 - - - - - - -
26/01:30pm 15.2 SSW 13 19 1020.4 - 0.0 - - - - - - -
26/01:00pm 15.8 SSW 11 18 1020.4 - 0.0 - - - - - - -
26/12:30pm 14.7 SSW 12 20 1020.6 - 0.0 - - - - - - -
26/12:00pm 14.5 SSW 13 19 1020.8 - 0.0 - - - - - - -
26/11:30am 14.5 SSW 11 17 1020.7 - 0.0 - - - - - - -
26/11:00am 14.5 SSW 11 16 1020.7 - 0.0 - - - - - - -
26/10:30am 12.5 S 9 15 1020.5 - 0.4 Drizzle Partly cloudy 10 - - - -
26/10:00am 13.8 SSW 10 18 1019.8 - 0.4 - - - - - - -
26/09:30am 13.5 S 13 21 1019.4 - 0.4 - - - - - - -
26/09:00am 11.5 SSW 14 22 1019.0 - 0.4 - - - - - - -
26/08:30am 10.3 W 9 18 1018.8 - 0.2 - - - - - - -
26/08:00am 9.6 W 7 9 1018.5 - 0.0 - - - - - - -
26/07:30am 8.1 WNW 6 9 1018.3 - 0.0 - - - - - - -
26/07:00am 9.3 WNW 6 7 1018.0 - 0.0 - - - - - - -
26/06:30am 8.6 WNW 6 8 1017.8 - 0.0 - - - - - - -
26/06:00am 9.5 WNW 9 13 1017.8 - 0.0 - - - - - - -
26/05:30am 9.7 WNW 7 10 1017.6 - 0.0 - - - - - - -
26/05:00am 10.3 WNW 7 9 1017.5 - 0.0 - - - - - - -
26/04:30am 9.7 WNW 9 14 1017.4 - 0.0 - - - - - - -
26/04:00am 9.0 NW 8 14 1017.5 - 0.0 - - - - - - -
26/03:30am 5.7 NNW 5 6 1017.5 - 0.0 - - - - - - -
26/03:00am 6.8 NW 6 7 1017.5 - 0.0 - - - - - - -
26/02:30am 4.8 N 5 7 1017.1 - 0.0 - - - - - - -
26/02:00am 6.5 NW 5 7 1017.3 - 0.0 - - - - - - -
26/01:30am 8.1 WNW 5 6 1017.5 - 0.0 - - - - - - -
26/01:00am 7.7 NW 5 6 1017.6 - 0.0 - - - - - - -
26/12:30am 10.1 WNW 5 6 1017.5 - 0.0 - - - - - - -
26/12:00am 9.1 WNW 5 6 1017.8 - 0.0 - - - - - - -
 
Date/Time
CST
Temp
°C
Wind Pressure Rain since
9am
mm
Weather Cloud Vis
km
Sea
Height
m
Swell
Dir  Spd
kts
Gust
kts
hPa Trend Height
m
Period
s
Dir
25/11:30pm 9.5 WNW 5 6 1018.0 - 0.0 - - - - - - -
25/11:00pm 10.7 W 6 8 1018.1 - 0.0 - - - - - - -
25/10:30pm 10.2 WNW 4 5 1018.2 - 0.0 - - - - - - -
25/10:00pm 10.5 CALM 0 0 1018.3 - 0.0 - - - - - - -
25/09:30pm 11.6 CALM 0 0 1018.4 - 0.0 - - - - - - -
25/09:00pm 11.6 NNE 4 5 1018.3 - 0.0 - - - - - - -
25/08:30pm 11.9 NE 5 5 1018.1 - 0.0 - - - - - - -
25/08:00pm 12.4 ENE 5 5 1017.9 - 0.0 - - - - - - -
25/07:30pm 12.5 NE 5 6 1018.0 - 0.0 - - - - - - -
25/07:00pm 12.5 NE 5 5 1017.8 - 0.0 - - - - - - -
25/06:30pm 12.7 N 1 4 1017.3 - 0.0 - - - - - - -
25/06:00pm 13.4 CALM 0 0 1016.8 - 0.0 - - - - - - -
25/05:30pm 14.4 N 2 4 1016.5 - 0.0 - - - - - - -
25/05:00pm 14.9 NNE 5 6 1016.6 - 0.0 - - - - - - -
25/04:30pm 15.1 N 5 7 1016.7 - 0.0 Haze Mostly cloudy 25 - - - -
25/04:00pm 15.1 N 6 9 1016.8 - 0.0 - - - - - - -
25/03:30pm 15.5 N 5 9 1016.8 - 0.0 - - - - - - -
25/03:00pm 15.5 N 5 9 1017.1 - 0.0 - - - - - - -
25/02:30pm 15.1 NNW 8 12 1017.5 - 0.0 - - - - - - -
25/02:00pm 15.5 N 6 9 1017.8 - 0.0 - - - - - - -
25/01:30pm 15.3 N 8 12 1018.3 - 0.0 - - - - - - -
25/01:00pm 15.4 N 8 11 1018.9 - 0.0 - - - - - - -
25/12:30pm 15.0 N 7 10 1019.6 - 0.0 - - - - - - -
25/12:00pm 14.2 N 7 9 1020.3 - 0.0 - - - - - - -
25/11:30am 13.5 N 7 9 1020.6 - 0.0 - - - - - - -
25/11:00am 12.9 NNE 7 9 1020.9 - 0.0 - - - - - - -
25/10:30am 12.2 NNE 7 9 1021.0 - 0.0 Haze Cloudy 25 - - - -
25/10:00am 11.4 NNE 6 8 1021.1 - 0.0 - - - - - - -
25/09:30am 10.9 NNE 5 7 1021.1 - 0.0 - - - - - - -
25/09:00am 10.3 NNE 6 7 1021.1 - 0.0 - - - - - - -
25/08:30am 9.8 NNE 4 5 1020.9 - 0.0 - - - - - - -
25/08:00am 9.7 NNE 6 8 1020.7 - 0.0 - - - - - - -
25/07:30am 9.5 NNE 5 7 1020.7 - 0.0 - - - - - - -
25/07:00am 9.6 NNE 6 7 1020.7 - 0.0 - - - - - - -
25/06:30am 9.6 NE 5 6 1020.6 - 0.0 - - - - - - -
25/06:00am 9.6 NNE 5 6 1020.6 - 0.0 - - - - - - -
25/05:30am 9.7 NNE 5 6 1020.8 - 0.0 - - - - - - -
25/05:00am 9.5 NNE 5 6 1020.7 - 0.0 - - - - - - -
25/04:30am 9.8 NNE 5 6 1020.9 - 0.0 - - - - - - -
25/04:00am 10.0 NNE 5 7 1021.1 - 0.0 - - - - - - -
25/03:30am 10.1 NNE 5 7 1021.3 - 0.0 - - - - - - -
25/03:00am 10.3 NNE 6 7 1021.5 - 0.0 - - - - - - -
25/02:30am 10.3 NNE 6 9 1021.5 - 0.0 - - - - - - -
25/02:00am 10.4 NE 6 8 1021.7 - 0.0 - - - - - - -

Other Formats:

Comma delimited format used in spreadsheet applications
http://www.bom.gov.au/fwo/IDS60701/IDS60701.94647.axf

JavaScript Object Notation format (JSON) in row-major order
http://www.bom.gov.au/fwo/IDS60701/IDS60701.94647.json